sensor_id;sensor_type;location;lat;lon;timestamp;temperature;humidity
42421;DHT22;28063;48.140;11.588;2023-05-07T00:01:28;13.80;99.90
42421;DHT22;28063;48.140;11.588;2023-05-07T00:03:54;13.80;99.90
42421;DHT22;28063;48.140;11.588;2023-05-07T00:06:19;13.70;99.90
42421;DHT22;28063;48.140;11.588;2023-05-07T00:08:45;13.70;99.90
42421;DHT22;28063;48.140;11.588;2023-05-07T00:11:10;13.70;99.90
42421;DHT22;28063;48.140;11.588;2023-05-07T00:13:36;13.60;99.90
42421;DHT22;28063;48.140;11.588;2023-05-07T00:16:03;13.60;99.90
42421;DHT22;28063;48.140;11.588;2023-05-07T00:18:28;13.60;99.90
42421;DHT22;28063;48.140;11.588;2023-05-07T00:20:54;13.60;99.90
42421;DHT22;28063;48.140;11.588;2023-05-07T00:23:20;13.50;99.90
42421;DHT22;28063;48.140;11.588;2023-05-07T00:25:45;13.50;99.90
42421;DHT22;28063;48.140;11.588;2023-05-07T00:28:11;13.50;99.90
42421;DHT22;28063;48.140;11.588;2023-05-07T00:30:37;13.50;99.90
42421;DHT22;28063;48.140;11.588;2023-05-07T00:33:02;13.50;99.90
42421;DHT22;28063;48.140;11.588;2023-05-07T00:35:29;13.50;99.90
42421;DHT22;28063;48.140;11.588;2023-05-07T00:37:55;13.50;99.90
42421;DHT22;28063;48.140;11.588;2023-05-07T00:40:21;13.40;99.90
42421;DHT22;28063;48.140;11.588;2023-05-07T00:42:46;13.40;99.90
42421;DHT22;28063;48.140;11.588;2023-05-07T00:45:14;13.40;99.90
42421;DHT22;28063;48.140;11.588;2023-05-07T00:47:41;13.40;99.90
42421;DHT22;28063;48.140;11.588;2023-05-07T00:50:08;13.40;99.90
42421;DHT22;28063;48.140;11.588;2023-05-07T00:52:37;13.40;99.90
42421;DHT22;28063;48.140;11.588;2023-05-07T00:55:05;13.40;99.90
42421;DHT22;28063;48.140;11.588;2023-05-07T00:57:40;13.40;99.90
42421;DHT22;28063;48.140;11.588;2023-05-07T01:00:07;13.40;99.90
42421;DHT22;28063;48.140;11.588;2023-05-07T01:02:38;13.40;99.90
42421;DHT22;28063;48.140;11.588;2023-05-07T01:05:05;13.40;99.90
42421;DHT22;28063;48.140;11.588;2023-05-07T01:07:33;13.40;99.90
42421;DHT22;28063;48.140;11.588;2023-05-07T01:10:00;13.40;99.90
42421;DHT22;28063;48.140;11.588;2023-05-07T01:12:26;13.40;99.90
42421;DHT22;28063;48.140;11.588;2023-05-07T01:14:53;13.40;99.90
42421;DHT22;28063;48.140;11.588;2023-05-07T01:17:19;13.40;99.90
42421;DHT22;28063;48.140;11.588;2023-05-07T01:19:44;13.40;99.90
42421;DHT22;28063;48.140;11.588;2023-05-07T01:22:11;13.40;99.90
42421;DHT22;28063;48.140;11.588;2023-05-07T01:24:37;13.40;99.90
42421;DHT22;28063;48.140;11.588;2023-05-07T01:27:04;13.40;99.90
42421;DHT22;28063;48.140;11.588;2023-05-07T01:29:29;13.30;99.90
42421;DHT22;28063;48.140;11.588;2023-05-07T01:32:00;13.30;99.90
42421;DHT22;28063;48.140;11.588;2023-05-07T01:34:28;13.30;99.90
42421;DHT22;28063;48.140;11.588;2023-05-07T01:36:55;13.30;99.90
42421;DHT22;28063;48.140;11.588;2023-05-07T01:39:25;13.30;99.90
42421;DHT22;28063;48.140;11.588;2023-05-07T01:41:51;13.30;99.90
42421;DHT22;28063;48.140;11.588;2023-05-07T01:44:17;13.20;99.90
42421;DHT22;28063;48.140;11.588;2023-05-07T01:46:44;13.20;99.90
42421;DHT22;28063;48.140;11.588;2023-05-07T01:49:10;13.20;99.90
42421;DHT22;28063;48.140;11.588;2023-05-07T01:51:36;13.20;99.90
42421;DHT22;28063;48.140;11.588;2023-05-07T01:54:02;13.20;99.90
42421;DHT22;28063;48.140;11.588;2023-05-07T01:56:27;13.20;99.90
42421;DHT22;28063;48.140;11.588;2023-05-07T01:58:53;13.20;99.90
42421;DHT22;28063;48.140;11.588;2023-05-07T02:01:19;13.20;99.90
42421;DHT22;28063;48.140;11.588;2023-05-07T02:03:44;13.10;99.90
42421;DHT22;28063;48.140;11.588;2023-05-07T02:06:10;13.10;99.90
42421;DHT22;28063;48.140;11.588;2023-05-07T02:08:36;13.10;99.90
42421;DHT22;28063;48.140;11.588;2023-05-07T02:11:01;13.10;99.90
42421;DHT22;28063;48.140;11.588;2023-05-07T02:13:32;13.00;99.90
42421;DHT22;28063;48.140;11.588;2023-05-07T02:15:59;13.00;99.90
42421;DHT22;28063;48.140;11.588;2023-05-07T02:18:24;13.00;99.90
42421;DHT22;28063;48.140;11.588;2023-05-07T02:20:50;13.00;99.90
42421;DHT22;28063;48.140;11.588;2023-05-07T02:23:16;13.00;99.90
42421;DHT22;28063;48.140;11.588;2023-05-07T02:25:41;13.00;99.90
42421;DHT22;28063;48.140;11.588;2023-05-07T02:28:07;12.90;99.90
42421;DHT22;28063;48.140;11.588;2023-05-07T02:30:33;12.90;99.90
42421;DHT22;28063;48.140;11.588;2023-05-07T02:32:58;12.90;99.90
42421;DHT22;28063;48.140;11.588;2023-05-07T02:35:27;12.90;99.90
42421;DHT22;28063;48.140;11.588;2023-05-07T02:37:52;12.90;99.90
42421;DHT22;28063;48.140;11.588;2023-05-07T02:40:18;12.90;99.90
42421;DHT22;28063;48.140;11.588;2023-05-07T02:42:44;12.80;99.90
42421;DHT22;28063;48.140;11.588;2023-05-07T02:45:10;12.90;99.90
42421;DHT22;28063;48.140;11.588;2023-05-07T02:47:36;12.90;99.90
42421;DHT22;28063;48.140;11.588;2023-05-07T02:50:02;12.80;99.90
42421;DHT22;28063;48.140;11.588;2023-05-07T02:52:28;12.80;99.90
42421;DHT22;28063;48.140;11.588;2023-05-07T02:54:53;12.80;99.90
42421;DHT22;28063;48.140;11.588;2023-05-07T02:57:19;12.80;99.90
42421;DHT22;28063;48.140;11.588;2023-05-07T02:59:45;12.80;99.90
42421;DHT22;28063;48.140;11.588;2023-05-07T03:02:11;12.80;99.90
42421;DHT22;28063;48.140;11.588;2023-05-07T03:04:36;12.70;99.90
42421;DHT22;28063;48.140;11.588;2023-05-07T03:07:02;12.70;99.90
42421;DHT22;28063;48.140;11.588;2023-05-07T03:09:28;12.70;99.90
42421;DHT22;28063;48.140;11.588;2023-05-07T03:11:53;12.70;99.90
42421;DHT22;28063;48.140;11.588;2023-05-07T03:14:19;12.60;99.90
42421;DHT22;28063;48.140;11.588;2023-05-07T03:16:45;12.60;99.90
42421;DHT22;28063;48.140;11.588;2023-05-07T03:19:11;12.60;99.90
42421;DHT22;28063;48.140;11.588;2023-05-07T03:21:37;12.50;99.90
42421;DHT22;28063;48.140;11.588;2023-05-07T03:24:02;12.50;99.90
42421;DHT22;28063;48.140;11.588;2023-05-07T03:26:28;12.40;99.90
42421;DHT22;28063;48.140;11.588;2023-05-07T03:28:54;12.40;99.90
42421;DHT22;28063;48.140;11.588;2023-05-07T03:31:20;12.40;99.90
42421;DHT22;28063;48.140;11.588;2023-05-07T03:33:55;12.40;99.90
42421;DHT22;28063;48.140;11.588;2023-05-07T03:36:21;12.40;99.90
42421;DHT22;28063;48.140;11.588;2023-05-07T03:38:48;12.40;99.90
42421;DHT22;28063;48.140;11.588;2023-05-07T03:41:14;12.40;99.90
42421;DHT22;28063;48.140;11.588;2023-05-07T03:43:42;12.40;99.90
42421;DHT22;28063;48.140;11.588;2023-05-07T03:46:09;12.40;99.90
42421;DHT22;28063;48.140;11.588;2023-05-07T03:48:34;12.40;99.90
42421;DHT22;28063;48.140;11.588;2023-05-07T03:51:00;12.40;99.90
42421;DHT22;28063;48.140;11.588;2023-05-07T03:53:26;12.40;99.90
42421;DHT22;28063;48.140;11.588;2023-05-07T03:55:52;12.40;99.90
42421;DHT22;28063;48.140;11.588;2023-05-07T03:58:20;12.40;99.90
42421;DHT22;28063;48.140;11.588;2023-05-07T04:00:46;12.40;99.90
42421;DHT22;28063;48.140;11.588;2023-05-07T04:03:11;12.30;99.90
42421;DHT22;28063;48.140;11.588;2023-05-07T04:05:40;12.30;99.90
42421;DHT22;28063;48.140;11.588;2023-05-07T04:08:07;12.30;99.90
42421;DHT22;28063;48.140;11.588;2023-05-07T04:10:35;12.40;99.90
42421;DHT22;28063;48.140;11.588;2023-05-07T04:13:04;12.40;99.90
42421;DHT22;28063;48.140;11.588;2023-05-07T04:15:30;12.40;99.90
42421;DHT22;28063;48.140;11.588;2023-05-07T04:17:55;12.40;99.90
42421;DHT22;28063;48.140;11.588;2023-05-07T04:20:21;12.50;99.90
42421;DHT22;28063;48.140;11.588;2023-05-07T04:22:47;12.50;99.90
42421;DHT22;28063;48.140;11.588;2023-05-07T04:25:12;12.50;99.90
42421;DHT22;28063;48.140;11.588;2023-05-07T04:27:38;12.50;99.90
42421;DHT22;28063;48.140;11.588;2023-05-07T04:30:04;12.60;99.90
42421;DHT22;28063;48.140;11.588;2023-05-07T04:32:30;12.60;99.90
42421;DHT22;28063;48.140;11.588;2023-05-07T04:34:56;12.70;99.90
42421;DHT22;28063;48.140;11.588;2023-05-07T04:37:22;12.70;99.90
42421;DHT22;28063;48.140;11.588;2023-05-07T04:39:48;12.80;99.90
42421;DHT22;28063;48.140;11.588;2023-05-07T04:42:17;12.80;99.90
42421;DHT22;28063;48.140;11.588;2023-05-07T04:44:46;12.90;99.90
42421;DHT22;28063;48.140;11.588;2023-05-07T04:47:12;13.00;99.90
42421;DHT22;28063;48.140;11.588;2023-05-07T04:49:40;13.10;99.90
42421;DHT22;28063;48.140;11.588;2023-05-07T04:52:06;13.10;99.90
42421;DHT22;28063;48.140;11.588;2023-05-07T04:54:32;13.20;99.90
42421;DHT22;28063;48.140;11.588;2023-05-07T04:56:57;13.30;99.90
42421;DHT22;28063;48.140;11.588;2023-05-07T04:59:23;13.40;99.90
42421;DHT22;28063;48.140;11.588;2023-05-07T05:01:49;13.50;99.90
42421;DHT22;28063;48.140;11.588;2023-05-07T05:04:14;13.60;99.90
42421;DHT22;28063;48.140;11.588;2023-05-07T05:06:40;13.70;99.90
42421;DHT22;28063;48.140;11.588;2023-05-07T05:09:06;13.70;99.90
42421;DHT22;28063;48.140;11.588;2023-05-07T05:11:32;13.80;99.90
42421;DHT22;28063;48.140;11.588;2023-05-07T05:13:59;14.00;99.90
42421;DHT22;28063;48.140;11.588;2023-05-07T05:16:25;14.00;99.90
42421;DHT22;28063;48.140;11.588;2023-05-07T05:18:51;14.00;99.90
42421;DHT22;28063;48.140;11.588;2023-05-07T05:21:17;14.00;99.90
42421;DHT22;28063;48.140;11.588;2023-05-07T05:23:43;14.00;99.90
42421;DHT22;28063;48.140;11.588;2023-05-07T05:26:09;14.00;99.90
42421;DHT22;28063;48.140;11.588;2023-05-07T05:28:34;14.10;99.90
42421;DHT22;28063;48.140;11.588;2023-05-07T05:31:00;14.20;99.90
42421;DHT22;28063;48.140;11.588;2023-05-07T05:33:26;14.30;99.90
42421;DHT22;28063;48.140;11.588;2023-05-07T05:35:53;14.40;99.90
42421;DHT22;28063;48.140;11.588;2023-05-07T05:38:19;14.50;99.90
42421;DHT22;28063;48.140;11.588;2023-05-07T05:40:46;14.60;99.90
42421;DHT22;28063;48.140;11.588;2023-05-07T05:43:12;14.70;99.90
42421;DHT22;28063;48.140;11.588;2023-05-07T05:45:37;14.70;99.90
42421;DHT22;28063;48.140;11.588;2023-05-07T05:48:03;14.70;99.90
42421;DHT22;28063;48.140;11.588;2023-05-07T05:50:29;14.80;99.90
42421;DHT22;28063;48.140;11.588;2023-05-07T05:52:54;14.90;99.90
42421;DHT22;28063;48.140;11.588;2023-05-07T05:55:20;15.00;99.90
42421;DHT22;28063;48.140;11.588;2023-05-07T05:57:47;15.10;99.90
42421;DHT22;28063;48.140;11.588;2023-05-07T06:00:13;15.70;99.90
42421;DHT22;28063;48.140;11.588;2023-05-07T06:05:05;20.80;92.90
42421;DHT22;28063;48.140;11.588;2023-05-07T06:09:57;23.90;79.90
42421;DHT22;28063;48.140;11.588;2023-05-07T06:12:22;25.30;73.20
42421;DHT22;28063;48.140;11.588;2023-05-07T06:14:48;26.20;67.90
42421;DHT22;28063;48.140;11.588;2023-05-07T06:17:14;26.90;63.10
42421;DHT22;28063;48.140;11.588;2023-05-07T06:19:39;27.40;60.50
42421;DHT22;28063;48.140;11.588;2023-05-07T06:22:05;27.90;58.60
42421;DHT22;28063;48.140;11.588;2023-05-07T06:24:36;28.50;57.00
42421;DHT22;28063;48.140;11.588;2023-05-07T06:27:02;28.60;55.00
42421;DHT22;28063;48.140;11.588;2023-05-07T06:29:30;28.30;53.60
42421;DHT22;28063;48.140;11.588;2023-05-07T06:32:06;28.10;53.70
42421;DHT22;28063;48.140;11.588;2023-05-07T06:34:39;28.20;54.10
42421;DHT22;28063;48.140;11.588;2023-05-07T06:37:05;28.70;53.00
42421;DHT22;28063;48.140;11.588;2023-05-07T06:39:32;28.60;52.50
42421;DHT22;28063;48.140;11.588;2023-05-07T06:41:58;28.80;52.20
42421;DHT22;28063;48.140;11.588;2023-05-07T06:44:24;29.10;51.50
42421;DHT22;28063;48.140;11.588;2023-05-07T06:46:49;29.40;51.50
42421;DHT22;28063;48.140;11.588;2023-05-07T06:49:15;29.70;50.90
42421;DHT22;28063;48.140;11.588;2023-05-07T06:51:44;30.20;50.30
42421;DHT22;28063;48.140;11.588;2023-05-07T06:54:10;30.30;49.40
42421;DHT22;28063;48.140;11.588;2023-05-07T06:56:35;29.90;48.90
42421;DHT22;28063;48.140;11.588;2023-05-07T06:59:02;29.60;49.10
42421;DHT22;28063;48.140;11.588;2023-05-07T07:01:28;28.40;49.60
42421;DHT22;28063;48.140;11.588;2023-05-07T07:03:54;26.50;51.60
42421;DHT22;28063;48.140;11.588;2023-05-07T07:06:19;24.30;55.60
42421;DHT22;28063;48.140;11.588;2023-05-07T07:08:45;22.50;59.90
42421;DHT22;28063;48.140;11.588;2023-05-07T07:11:15;21.20;63.90
42421;DHT22;28063;48.140;11.588;2023-05-07T07:13:41;20.40;67.20
42421;DHT22;28063;48.140;11.588;2023-05-07T07:16:08;19.80;69.60
42421;DHT22;28063;48.140;11.588;2023-05-07T07:18:34;19.30;71.90
42421;DHT22;28063;48.140;11.588;2023-05-07T07:20:59;18.90;73.80
42421;DHT22;28063;48.140;11.588;2023-05-07T07:23:25;18.70;75.40
42421;DHT22;28063;48.140;11.588;2023-05-07T07:25:51;18.50;76.60
42421;DHT22;28063;48.140;11.588;2023-05-07T07:28:17;18.40;77.50
42421;DHT22;28063;48.140;11.588;2023-05-07T07:30:43;18.40;78.30
42421;DHT22;28063;48.140;11.588;2023-05-07T07:33:09;18.50;78.80
42421;DHT22;28063;48.140;11.588;2023-05-07T07:35:35;18.60;78.90
42421;DHT22;28063;48.140;11.588;2023-05-07T07:38:01;18.70;79.20
42421;DHT22;28063;48.140;11.588;2023-05-07T07:40:29;18.70;80.10
42421;DHT22;28063;48.140;11.588;2023-05-07T07:42:57;18.70;80.40
42421;DHT22;28063;48.140;11.588;2023-05-07T07:45:22;18.70;80.30
42421;DHT22;28063;48.140;11.588;2023-05-07T07:47:50;18.70;80.30
42421;DHT22;28063;48.140;11.588;2023-05-07T07:50:16;18.70;80.90
42421;DHT22;28063;48.140;11.588;2023-05-07T07:52:42;18.70;81.40
42421;DHT22;28063;48.140;11.588;2023-05-07T07:55:11;18.80;82.00
42421;DHT22;28063;48.140;11.588;2023-05-07T07:57:40;18.90;82.30
42421;DHT22;28063;48.140;11.588;2023-05-07T08:00:11;19.10;82.30
42421;DHT22;28063;48.140;11.588;2023-05-07T08:02:36;19.20;81.50
42421;DHT22;28063;48.140;11.588;2023-05-07T08:05:02;19.30;81.30
42421;DHT22;28063;48.140;11.588;2023-05-07T08:07:31;19.50;81.00
42421;DHT22;28063;48.140;11.588;2023-05-07T08:09:56;19.60;80.70
42421;DHT22;28063;48.140;11.588;2023-05-07T08:12:22;19.70;80.20
42421;DHT22;28063;48.140;11.588;2023-05-07T08:14:47;19.70;80.10
42421;DHT22;28063;48.140;11.588;2023-05-07T08:17:13;19.80;80.50
42421;DHT22;28063;48.140;11.588;2023-05-07T08:19:41;19.90;79.50
42421;DHT22;28063;48.140;11.588;2023-05-07T08:38:54;20.40;74.40
42421;DHT22;28063;48.140;11.588;2023-05-07T08:41:56;20.70;75.10
42421;DHT22;28063;48.140;11.588;2023-05-07T08:48:32;21.30;73.50
42421;DHT22;28063;48.140;11.588;2023-05-07T08:51:24;21.20;73.50
42421;DHT22;28063;48.140;11.588;2023-05-07T08:53:53;21.50;74.40
42421;DHT22;28063;48.140;11.588;2023-05-07T08:56:29;21.70;73.00
42421;DHT22;28063;48.140;11.588;2023-05-07T08:59:01;21.70;72.20
42421;DHT22;28063;48.140;11.588;2023-05-07T09:01:32;21.70;71.60
42421;DHT22;28063;48.140;11.588;2023-05-07T09:04:13;21.70;70.60
42421;DHT22;28063;48.140;11.588;2023-05-07T09:06:54;21.70;69.80
42421;DHT22;28063;48.140;11.588;2023-05-07T09:09:29;21.90;69.10
42421;DHT22;28063;48.140;11.588;2023-05-07T09:12:09;21.90;69.30
42421;DHT22;28063;48.140;11.588;2023-05-07T09:15:18;22.10;68.50
42421;DHT22;28063;48.140;11.588;2023-05-07T09:17:53;22.30;67.70
42421;DHT22;28063;48.140;11.588;2023-05-07T09:20:34;22.20;67.70
42421;DHT22;28063;48.140;11.588;2023-05-07T09:23:08;22.20;68.60
42421;DHT22;28063;48.140;11.588;2023-05-07T09:26:06;22.40;68.10
42421;DHT22;28063;48.140;11.588;2023-05-07T09:28:41;22.70;67.20
42421;DHT22;28063;48.140;11.588;2023-05-07T09:31:08;23.00;65.80
42421;DHT22;28063;48.140;11.588;2023-05-07T09:34:28;23.20;64.50
42421;DHT22;28063;48.140;11.588;2023-05-07T09:41:22;23.10;62.80
42421;DHT22;28063;48.140;11.588;2023-05-07T09:51:30;23.40;60.50
42421;DHT22;28063;48.140;11.588;2023-05-07T09:54:05;23.30;60.50
42421;DHT22;28063;48.140;11.588;2023-05-07T09:56:41;23.20;60.40
42421;DHT22;28063;48.140;11.588;2023-05-07T09:59:33;23.40;60.80
42421;DHT22;28063;48.140;11.588;2023-05-07T10:12:48;23.80;60.80
42421;DHT22;28063;48.140;11.588;2023-05-07T10:19:09;23.60;58.20
42421;DHT22;28063;48.140;11.588;2023-05-07T10:24:56;23.90;58.40
42421;DHT22;28063;48.140;11.588;2023-05-07T10:27:25;23.80;58.40
42421;DHT22;28063;48.140;11.588;2023-05-07T10:30:07;23.60;59.30
42421;DHT22;28063;48.140;11.588;2023-05-07T10:32:42;23.50;59.20
42421;DHT22;28063;48.140;11.588;2023-05-07T10:35:22;23.40;59.40
42421;DHT22;28063;48.140;11.588;2023-05-07T10:37:50;23.50;59.30
42421;DHT22;28063;48.140;11.588;2023-05-07T10:40:16;23.30;58.10
42421;DHT22;28063;48.140;11.588;2023-05-07T10:43:03;23.30;58.90
42421;DHT22;28063;48.140;11.588;2023-05-07T10:45:32;23.20;59.10
42421;DHT22;28063;48.140;11.588;2023-05-07T10:48:09;23.30;59.70
42421;DHT22;28063;48.140;11.588;2023-05-07T10:50:39;23.20;60.20
42421;DHT22;28063;48.140;11.588;2023-05-07T10:58:44;23.20;61.70
42421;DHT22;28063;48.140;11.588;2023-05-07T11:01:10;23.40;60.30
42421;DHT22;28063;48.140;11.588;2023-05-07T11:04:12;23.60;60.20
42421;DHT22;28063;48.140;11.588;2023-05-07T11:06:38;23.70;59.60
42421;DHT22;28063;48.140;11.588;2023-05-07T11:09:04;23.80;59.70
42421;DHT22;28063;48.140;11.588;2023-05-07T11:11:49;23.80;59.60
42421;DHT22;28063;48.140;11.588;2023-05-07T11:17:09;24.10;59.30
42421;DHT22;28063;48.140;11.588;2023-05-07T11:19:55;24.00;59.20
42421;DHT22;28063;48.140;11.588;2023-05-07T11:25:02;23.80;60.20
42421;DHT22;28063;48.140;11.588;2023-05-07T11:27:58;23.90;60.10
42421;DHT22;28063;48.140;11.588;2023-05-07T11:30:38;23.90;58.90
42421;DHT22;28063;48.140;11.588;2023-05-07T11:33:05;23.90;59.10
42421;DHT22;28063;48.140;11.588;2023-05-07T11:35:31;23.90;59.30
42421;DHT22;28063;48.140;11.588;2023-05-07T11:38:00;24.10;59.40
42421;DHT22;28063;48.140;11.588;2023-05-07T11:40:26;24.30;58.40
42421;DHT22;28063;48.140;11.588;2023-05-07T11:42:51;24.30;58.90
42421;DHT22;28063;48.140;11.588;2023-05-07T11:45:23;24.30;58.20
42421;DHT22;28063;48.140;11.588;2023-05-07T11:47:52;24.40;58.40
42421;DHT22;28063;48.140;11.588;2023-05-07T11:50:17;24.40;58.40
42421;DHT22;28063;48.140;11.588;2023-05-07T11:52:50;24.40;58.10
42421;DHT22;28063;48.140;11.588;2023-05-07T11:55:18;24.30;58.10
42421;DHT22;28063;48.140;11.588;2023-05-07T11:57:44;24.10;58.60
42421;DHT22;28063;48.140;11.588;2023-05-07T12:00:11;24.20;58.80
42421;DHT22;28063;48.140;11.588;2023-05-07T12:02:36;24.30;58.60
42421;DHT22;28063;48.140;11.588;2023-05-07T12:05:02;24.50;58.40
42421;DHT22;28063;48.140;11.588;2023-05-07T12:07:28;24.70;57.90
42421;DHT22;28063;48.140;11.588;2023-05-07T12:09:53;24.90;57.60
42421;DHT22;28063;48.140;11.588;2023-05-07T12:12:19;25.10;55.90
42421;DHT22;28063;48.140;11.588;2023-05-07T12:14:46;25.10;55.30
42421;DHT22;28063;48.140;11.588;2023-05-07T12:17:13;24.80;55.80
42421;DHT22;28063;48.140;11.588;2023-05-07T12:19:40;24.50;56.20
42421;DHT22;28063;48.140;11.588;2023-05-07T12:22:07;24.30;56.70
42421;DHT22;28063;48.140;11.588;2023-05-07T12:27:16;24.10;57.00
42421;DHT22;28063;48.140;11.588;2023-05-07T12:29:50;24.10;57.30
42421;DHT22;28063;48.140;11.588;2023-05-07T12:32:17;24.10;57.00
42421;DHT22;28063;48.140;11.588;2023-05-07T12:34:44;24.30;56.80
42421;DHT22;28063;48.140;11.588;2023-05-07T12:37:10;24.40;56.40
42421;DHT22;28063;48.140;11.588;2023-05-07T12:39:36;24.70;56.00
42421;DHT22;28063;48.140;11.588;2023-05-07T12:42:01;25.00;54.30
42421;DHT22;28063;48.140;11.588;2023-05-07T12:44:32;24.90;53.80
42421;DHT22;28063;48.140;11.588;2023-05-07T12:47:01;24.60;55.10
42421;DHT22;28063;48.140;11.588;2023-05-07T12:49:27;24.60;54.70
42421;DHT22;28063;48.140;11.588;2023-05-07T12:51:53;24.40;54.00
42421;DHT22;28063;48.140;11.588;2023-05-07T12:54:29;24.10;54.90
42421;DHT22;28063;48.140;11.588;2023-05-07T12:57:06;24.10;55.00
42421;DHT22;28063;48.140;11.588;2023-05-07T12:59:37;24.00;55.30
42421;DHT22;28063;48.140;11.588;2023-05-07T13:02:04;24.30;55.00
42421;DHT22;28063;48.140;11.588;2023-05-07T13:04:36;24.50;53.70
42421;DHT22;28063;48.140;11.588;2023-05-07T13:07:02;24.80;54.30
42421;DHT22;28063;48.140;11.588;2023-05-07T13:09:28;25.30;53.50
42421;DHT22;28063;48.140;11.588;2023-05-07T13:11:56;25.60;51.60
42421;DHT22;28063;48.140;11.588;2023-05-07T13:14:21;25.60;51.10
42421;DHT22;28063;48.140;11.588;2023-05-07T13:16:47;25.50;50.40
42421;DHT22;28063;48.140;11.588;2023-05-07T13:19:29;25.40;50.90
42421;DHT22;28063;48.140;11.588;2023-05-07T13:21:55;25.50;49.90
42421;DHT22;28063;48.140;11.588;2023-05-07T13:24:20;25.30;50.00
42421;DHT22;28063;48.140;11.588;2023-05-07T13:26:49;25.10;50.50
42421;DHT22;28063;48.140;11.588;2023-05-07T13:29:15;24.90;49.90
42421;DHT22;28063;48.140;11.588;2023-05-07T13:31:41;24.80;50.10
42421;DHT22;28063;48.140;11.588;2023-05-07T13:34:09;24.80;49.80
42421;DHT22;28063;48.140;11.588;2023-05-07T13:36:35;24.80;49.60
42421;DHT22;28063;48.140;11.588;2023-05-07T13:39:03;24.90;50.00
42421;DHT22;28063;48.140;11.588;2023-05-07T13:41:29;25.00;49.90
42421;DHT22;28063;48.140;11.588;2023-05-07T13:43:55;25.10;49.20
42421;DHT22;28063;48.140;11.588;2023-05-07T13:46:21;25.10;48.70
42421;DHT22;28063;48.140;11.588;2023-05-07T13:48:47;25.20;49.20
42421;DHT22;28063;48.140;11.588;2023-05-07T13:51:13;25.40;49.20
42421;DHT22;28063;48.140;11.588;2023-05-07T13:53:38;25.40;47.90
42421;DHT22;28063;48.140;11.588;2023-05-07T13:56:04;25.40;48.10
42421;DHT22;28063;48.140;11.588;2023-05-07T13:58:30;25.20;48.70
42421;DHT22;28063;48.140;11.588;2023-05-07T14:00:56;25.10;49.00
42421;DHT22;28063;48.140;11.588;2023-05-07T14:03:22;25.10;49.70
42421;DHT22;28063;48.140;11.588;2023-05-07T14:05:47;25.20;49.60
42421;DHT22;28063;48.140;11.588;2023-05-07T14:08:13;25.30;49.80
42421;DHT22;28063;48.140;11.588;2023-05-07T14:10:40;25.40;50.00
42421;DHT22;28063;48.140;11.588;2023-05-07T14:13:05;25.50;49.10
42421;DHT22;28063;48.140;11.588;2023-05-07T14:15:32;25.30;49.50
42421;DHT22;28063;48.140;11.588;2023-05-07T14:17:58;25.10;49.40
42421;DHT22;28063;48.140;11.588;2023-05-07T14:20:24;24.80;50.10
42421;DHT22;28063;48.140;11.588;2023-05-07T14:22:50;24.60;50.80
42421;DHT22;28063;48.140;11.588;2023-05-07T14:25:16;24.60;51.30
42421;DHT22;28063;48.140;11.588;2023-05-07T14:27:41;24.40;51.70
42421;DHT22;28063;48.140;11.588;2023-05-07T14:30:07;24.10;52.50
42421;DHT22;28063;48.140;11.588;2023-05-07T14:32:34;23.90;53.10
42421;DHT22;28063;48.140;11.588;2023-05-07T14:34:59;23.70;53.90
42421;DHT22;28063;48.140;11.588;2023-05-07T14:37:25;23.70;54.20
42421;DHT22;28063;48.140;11.588;2023-05-07T14:39:51;23.70;54.60
42421;DHT22;28063;48.140;11.588;2023-05-07T14:42:17;23.70;54.80
42421;DHT22;28063;48.140;11.588;2023-05-07T14:44:42;23.70;54.70
42421;DHT22;28063;48.140;11.588;2023-05-07T14:47:10;23.70;54.90
42421;DHT22;28063;48.140;11.588;2023-05-07T14:49:35;23.80;54.90
42421;DHT22;28063;48.140;11.588;2023-05-07T14:52:01;23.90;55.30
42421;DHT22;28063;48.140;11.588;2023-05-07T14:54:27;24.00;55.00
42421;DHT22;28063;48.140;11.588;2023-05-07T14:56:53;24.10;55.20
42421;DHT22;28063;48.140;11.588;2023-05-07T14:59:19;24.10;54.60
42421;DHT22;28063;48.140;11.588;2023-05-07T15:01:47;24.00;55.60
42421;DHT22;28063;48.140;11.588;2023-05-07T15:04:13;23.80;55.60
42421;DHT22;28063;48.140;11.588;2023-05-07T15:06:38;23.60;56.40
42421;DHT22;28063;48.140;11.588;2023-05-07T15:09:04;23.40;56.50
42421;DHT22;28063;48.140;11.588;2023-05-07T15:11:30;23.10;57.30
42421;DHT22;28063;48.140;11.588;2023-05-07T15:13:56;22.90;57.50
42421;DHT22;28063;48.140;11.588;2023-05-07T15:16:22;22.80;58.00
42421;DHT22;28063;48.140;11.588;2023-05-07T15:18:48;22.70;58.20
42421;DHT22;28063;48.140;11.588;2023-05-07T15:21:14;22.50;58.40
42421;DHT22;28063;48.140;11.588;2023-05-07T15:23:40;22.40;59.30
42421;DHT22;28063;48.140;11.588;2023-05-07T15:26:06;22.30;58.70
42421;DHT22;28063;48.140;11.588;2023-05-07T15:28:33;22.30;59.10
42421;DHT22;28063;48.140;11.588;2023-05-07T15:30:59;22.30;59.20
42421;DHT22;28063;48.140;11.588;2023-05-07T15:33:25;22.10;59.50
42421;DHT22;28063;48.140;11.588;2023-05-07T15:35:50;22.10;59.60
42421;DHT22;28063;48.140;11.588;2023-05-07T15:38:16;22.00;59.40
42421;DHT22;28063;48.140;11.588;2023-05-07T15:40:42;22.00;59.90
42421;DHT22;28063;48.140;11.588;2023-05-07T15:43:08;21.90;59.50
42421;DHT22;28063;48.140;11.588;2023-05-07T15:45:41;21.90;59.20
42421;DHT22;28063;48.140;11.588;2023-05-07T15:48:11;21.80;59.70
42421;DHT22;28063;48.140;11.588;2023-05-07T15:50:37;21.80;59.20
42421;DHT22;28063;48.140;11.588;2023-05-07T15:53:04;21.60;59.50
42421;DHT22;28063;48.140;11.588;2023-05-07T15:55:32;21.60;60.00
42421;DHT22;28063;48.140;11.588;2023-05-07T15:57:58;21.60;60.30
42421;DHT22;28063;48.140;11.588;2023-05-07T16:00:26;21.50;59.90
42421;DHT22;28063;48.140;11.588;2023-05-07T16:02:52;21.40;59.60
42421;DHT22;28063;48.140;11.588;2023-05-07T16:05:18;21.30;59.70
42421;DHT22;28063;48.140;11.588;2023-05-07T16:07:44;21.10;60.00
42421;DHT22;28063;48.140;11.588;2023-05-07T16:10:10;21.10;60.50
42421;DHT22;28063;48.140;11.588;2023-05-07T16:12:36;21.10;60.40
42421;DHT22;28063;48.140;11.588;2023-05-07T16:15:02;21.00;60.60
42421;DHT22;28063;48.140;11.588;2023-05-07T16:17:28;21.00;61.40
42421;DHT22;28063;48.140;11.588;2023-05-07T16:19:53;21.00;60.30
42421;DHT22;28063;48.140;11.588;2023-05-07T16:22:19;20.90;60.30
42421;DHT22;28063;48.140;11.588;2023-05-07T16:24:45;20.90;60.80
42421;DHT22;28063;48.140;11.588;2023-05-07T16:27:13;20.90;60.80
42421;DHT22;28063;48.140;11.588;2023-05-07T16:29:38;20.90;60.80